Concord Municipal Airport Concord US
ICAO: KCON
IATA: CON
Category: Medium
Scheduled Services: No

Elevation: 342 ft
TransAlt. 18000 ft.

Airport Communications:
BOSTON APP/DEP:127.35
ASOS:132.32
CLNC DEL:133.65
ARNG OPS:32.1
BANGOR RDO:122.3
CTAF/UNICOM:122.7

KCON Zoom In..

Runways:

(A) RW 12 length 3200 ft width 75 ft
---- / hdg 121

(B) RW 17 length 6005 ft width 100 ft
---- / hdg 171

(C) RW 30 length 3200 ft width 75 ft
---- / hdg 301

(D) RW 35 length 6005 ft width 100 ft
ILS 108.70 / hdg 351

Location; KCON
Day. 23 / Time. 21.51 Zulu
* Altimeter: 29.50
* Temperature: 01° c. 33.8°f.
* Wind from: 280° Speed 03 kn.
Dewpoint: -01° c.
Visibility: 7 Statute Miles.
Clouds: Few 500 ft.
Clouds: Overcast 4300 ft.

KCON 232151Z AUTO 28003KT 7SM FEW005 OVC043 01/M01 A2950 RMK AO2 RAE07 SLP992 P0000 T00061006


Wind From 280°
Speed 03 kn.

YouTube Music Video
 
jpsmedia.com for Web Design  worldairports.se 2018   terms of use